Haig, Nebraska
Current Conditions -  °F | °C
As of 3:53 PM on Tuesday 27 Jan 2015 (Local Time) from KTOR Reporting Station
Clear Clear  
Wind Chill: 69°   Ceiling: Unl
Heat Index: 69°   Visibility: 10mi
Dew Point: 23°   Wind: 8mph
Humidity: 18%   Direction: 310°NW
Pressure: 29.96"   Gusts: NA
Location:  41.9575°N, 103.765°W
Report Text: KTOR 272253Z AUTO 31007KT 10SM CLR 21/M05 A2996 RMK AO2 SLP131 T02061050 $
Loading
Personal Weather Stations






























Interactive Weather Map New forecast layout! Learn more

10-Day Weather Forecast

Advertisements
Track Severe Weather on mobile